Time;durP1;ratioP1;P1;durP2;ratioP2;P2;SDS_P1;SDS_P2;PMS_P1;PMS_P2;Temp;Humidity;BMP_temperature;BMP_pressure;BME280_temperature;BME280_humidity;BME280_pressure;Samples;Min_cycle;Max_cycle;Signal;HPM_P1;HPM_P2
2022/09/20 00:01:30;;;;;;;2.40;1.50;;;9.80;99.90;;;;;;5056761;28;20459;-71
2022/09/20 00:04:00;;;;;;;1.93;1.73;;;9.80;99.90;;;;;;5067594;28;20567;-71
2022/09/20 00:06:30;;;;;;;2.10;1.60;;;9.80;99.90;;;;;;5076990;28;20454;-70
2022/09/20 00:08:58;;;;;;;3.07;2.00;;;9.80;99.90;;;;;;5076907;28;20468;-71
2022/09/20 00:11:27;;;;;;;1.90;1.50;;;9.80;99.90;;;;;;5075727;28;20480;-69
2022/09/20 00:13:56;;;;;;;4.33;1.50;;;9.70;99.90;;;;;;5076712;28;20450;-70
2022/09/20 00:16:26;;;;;;;2.63;1.70;;;9.70;99.90;;;;;;5076949;28;20549;-69
2022/09/20 00:18:55;;;;;;;2.27;1.50;;;9.70;99.90;;;;;;5077410;28;20468;-69
2022/09/20 00:21:24;;;;;;;3.20;1.63;;;9.70;99.90;;;;;;5078562;28;20998;-69
2022/09/20 00:23:52;;;;;;;3.90;1.63;;;9.60;99.90;;;;;;5077508;28;20569;-70
2022/09/20 00:26:20;;;;;;;3.27;2.10;;;9.60;99.90;;;;;;5076412;28;20450;-70
2022/09/20 00:28:46;;;;;;;3.93;1.70;;;9.60;99.90;;;;;;5077166;28;20518;-70
2022/09/20 00:31:14;;;;;;;5.53;1.97;;;9.60;99.90;;;;;;5076817;28;20540;-70
2022/09/20 00:36:26;;;;;;;2.33;1.70;;;9.60;99.90;;;;;;5079512;28;20472;-71
2022/09/20 00:38:56;;;;;;;2.10;1.87;;;9.60;99.90;;;;;;5078692;28;20546;-70
2022/09/20 00:41:23;;;;;;;2.10;1.77;;;9.60;99.90;;;;;;5075644;28;20477;-71
2022/09/20 00:43:51;;;;;;;3.90;2.00;;;9.60;99.90;;;;;;5077131;28;20482;-70
2022/09/20 00:46:25;;;;;;;5.73;1.80;;;9.60;99.90;;;;;;5078382;28;21014;-71
2022/09/20 00:48:55;;;;;;;3.50;1.77;;;9.60;99.90;;;;;;5078170;28;20923;-71
2022/09/20 00:51:27;;;;;;;2.70;1.60;;;9.60;99.90;;;;;;5078828;28;20485;-70
2022/09/20 00:53:57;;;;;;;3.70;1.97;;;9.60;99.90;;;;;;5077278;28;20508;-70
2022/09/20 00:56:28;;;;;;;3.73;1.73;;;9.50;99.90;;;;;;5077965;28;20544;-70
2022/09/20 00:59:01;;;;;;;1.50;1.30;;;9.50;99.90;;;;;;5077559;28;20473;-71
2022/09/20 01:01:29;;;;;;;2.27;1.40;;;9.50;99.90;;;;;;5078294;28;20453;-70
2022/09/20 01:03:56;;;;;;;1.60;1.40;;;9.50;99.90;;;;;;5079595;28;20581;-69
2022/09/20 01:06:23;;;;;;;2.10;1.40;;;9.50;99.90;;;;;;5077894;28;20740;-68
2022/09/20 01:08:53;;;;;;;2.17;1.60;;;9.50;99.90;;;;;;5077799;28;20560;-70
2022/09/20 01:11:21;;;;;;;5.23;1.60;;;9.50;99.90;;;;;;5081738;28;20985;-70
2022/09/20 01:13:48;;;;;;;3.27;1.83;;;9.50;99.90;;;;;;5081864;28;20465;-70
2022/09/20 01:16:16;;;;;;;2.63;1.97;;;9.50;99.90;;;;;;5082052;28;20519;-70
2022/09/20 01:18:45;;;;;;;2.43;1.33;;;9.50;99.90;;;;;;5082237;28;20464;-70
2022/09/20 01:21:13;;;;;;;2.80;1.40;;;9.50;99.90;;;;;;5082545;28;20509;-71
2022/09/20 01:23:50;;;;;;;2.37;1.50;;;9.50;99.90;;;;;;5082023;28;21009;-71
2022/09/20 01:26:37;;;;;;;2.33;1.40;;;9.50;99.90;;;;;;5081987;28;20597;-71
2022/09/20 01:29:16;;;;;;;1.80;1.30;;;9.50;99.90;;;;;;5081559;28;20538;-70
2022/09/20 01:31:48;;;;;;;1.70;1.40;;;9.40;99.90;;;;;;5083205;28;20790;-70
2022/09/20 01:34:18;;;;;;;3.43;1.70;;;9.40;99.90;;;;;;5079872;28;20768;-71
2022/09/20 01:36:51;;;;;;;2.73;1.73;;;9.40;99.90;;;;;;5078084;28;20448;-71
2022/09/20 01:39:29;;;;;;;2.60;1.37;;;9.50;99.90;;;;;;5077784;28;20521;-71
2022/09/20 01:41:59;;;;;;;3.53;1.67;;;9.40;99.90;;;;;;5077714;28;20620;-71
2022/09/20 01:44:34;;;;;;;3.50;1.60;;;9.40;99.90;;;;;;5077500;28;20492;-70
2022/09/20 01:47:08;;;;;;;1.97;1.60;;;9.40;99.90;;;;;;5077678;28;20453;-72
2022/09/20 01:49:44;;;;;;;3.43;1.63;;;9.40;99.90;;;;;;5077894;28;20438;-71
2022/09/20 01:52:47;;;;;;;1.90;1.57;;;9.40;99.90;;;;;;5078068;28;20886;-71
2022/09/20 01:55:38;;;;;;;2.10;1.40;;;9.40;99.90;;;;;;5077620;28;20442;-70
2022/09/20 01:58:51;;;;;;;2.17;1.97;;;9.40;99.90;;;;;;5077700;28;20482;-71
2022/09/20 02:01:49;;;;;;;2.50;1.47;;;9.30;99.90;;;;;;5078104;28;20469;-71
2022/09/20 02:04:51;;;;;;;2.67;1.40;;;9.30;99.90;;;;;;5076800;28;20498;-71
2022/09/20 02:07:38;;;;;;;1.80;1.43;;;9.30;99.90;;;;;;5076799;28;20956;-71
2022/09/20 02:10:31;;;;;;;2.13;1.50;;;9.30;99.90;;;;;;5076984;28;20504;-71
2022/09/20 02:13:00;;;;;;;2.70;1.67;;;9.30;99.90;;;;;;5077654;28;20450;-71
2022/09/20 02:15:58;;;;;;;3.43;1.43;;;9.30;99.90;;;;;;5077151;28;20465;-71
2022/09/20 02:18:47;;;;;;;1.97;1.60;;;9.30;99.90;;;;;;4996267;28;20446;-71
2022/09/20 02:21:23;;;;;;;4.90;1.70;;;9.30;99.90;;;;;;4995194;28;20477;-69
2022/09/20 02:24:01;;;;;;;2.80;1.83;;;9.20;99.90;;;;;;4995162;28;20576;-69
2022/09/20 02:26:39;;;;;;;1.60;1.50;;;9.20;99.90;;;;;;4995123;28;20438;-68
2022/09/20 02:29:18;;;;;;;1.90;1.40;;;9.30;99.90;;;;;;4994989;28;20468;-68
2022/09/20 02:32:11;;;;;;;2.47;1.43;;;9.30;99.90;;;;;;4995489;28;20442;-68
2022/09/20 02:35:06;;;;;;;4.70;1.77;;;9.30;99.90;;;;;;4997122;28;20518;-70
2022/09/20 02:38:04;;;;;;;2.43;1.27;;;9.30;99.90;;;;;;4993895;28;20448;-69
2022/09/20 02:41:00;;;;;;;1.47;1.30;;;9.40;99.90;;;;;;4916306;29;20957;-69
2022/09/20 02:43:33;;;;;;;5.47;1.70;;;9.40;99.90;;;;;;4845483;29;20481;-69
2022/09/20 02:46:08;;;;;;;1.80;1.60;;;9.40;99.90;;;;;;4843482;29;20808;-69
2022/09/20 02:48:44;;;;;;;2.90;1.43;;;9.50;99.90;;;;;;4843320;29;20469;-68
2022/09/20 02:51:21;;;;;;;1.80;1.40;;;9.50;99.90;;;;;;4843519;29;20547;-69
2022/09/20 02:54:03;;;;;;;1.50;1.40;;;9.60;99.90;;;;;;4843285;29;20457;-69
2022/09/20 02:56:38;;;;;;;1.80;1.53;;;9.50;99.90;;;;;;4911333;29;20462;-69
2022/09/20 02:59:09;;;;;;;1.60;1.50;;;9.50;99.90;;;;;;4917709;29;20457;-69
2022/09/20 03:01:46;;;;;;;4.50;1.50;;;9.60;99.90;;;;;;4918144;29;20465;-69
2022/09/20 03:04:32;;;;;;;2.60;1.40;;;9.60;99.90;;;;;;4917644;29;20583;-69
2022/09/20 03:07:06;;;;;;;3.20;1.67;;;9.60;99.90;;;;;;4917916;29;20458;-69
2022/09/20 03:09:41;;;;;;;2.37;1.50;;;9.60;99.90;;;;;;4917574;29;20449;-69
2022/09/20 03:12:19;;;;;;;3.13;1.47;;;9.60;99.90;;;;;;4917962;29;20467;-69
2022/09/20 03:14:54;;;;;;;2.37;1.30;;;9.60;99.90;;;;;;4917662;29;20529;-69
2022/09/20 03:17:30;;;;;;;2.43;1.40;;;9.60;99.90;;;;;;4953696;28;20468;-69
2022/09/20 03:20:08;;;;;;;1.30;1.10;;;9.60;99.90;;;;;;5006915;28;20548;-69
2022/09/20 03:22:49;;;;;;;1.70;1.57;;;9.60;99.90;;;;;;5075436;28;20442;-68
2022/09/20 03:25:38;;;;;;;1.70;1.17;;;9.60;99.90;;;;;;5074343;28;20466;-69
2022/09/20 03:28:19;;;;;;;1.97;1.70;;;9.60;99.90;;;;;;5074971;28;20438;-70
2022/09/20 03:30:59;;;;;;;1.70;1.20;;;9.60;99.90;;;;;;5075552;28;20438;-69
2022/09/20 03:33:37;;;;;;;1.47;1.20;;;9.60;99.90;;;;;;5075415;28;20518;-72
2022/09/20 03:36:17;;;;;;;2.77;1.50;;;9.60;99.90;;;;;;5075555;28;20510;-71
2022/09/20 03:39:02;;;;;;;2.03;1.50;;;9.60;99.90;;;;;;5075619;28;20452;-70
2022/09/20 03:41:50;;;;;;;2.43;1.23;;;9.60;99.90;;;;;;5075657;28;20503;-69
2022/09/20 03:44:48;;;;;;;2.53;1.53;;;9.60;99.90;;;;;;5014251;28;20512;-69
2022/09/20 03:47:27;;;;;;;1.80;1.23;;;9.70;99.90;;;;;;4995459;28;20462;-68
2022/09/20 03:50:30;;;;;;;2.13;1.30;;;9.70;99.90;;;;;;5001430;28;20460;-69
2022/09/20 03:53:13;;;;;;;2.60;1.70;;;9.70;99.90;;;;;;4974372;28;20780;-69
2022/09/20 03:56:12;;;;;;;2.00;1.70;;;9.70;99.90;;;;;;4974505;28;20534;-68
2022/09/20 03:58:59;;;;;;;2.10;1.60;;;9.70;99.90;;;;;;4898349;29;20522;-69
2022/09/20 04:01:38;;;;;;;4.90;1.40;;;9.70;99.90;;;;;;4897659;29;20554;-69
2022/09/20 04:04:15;;;;;;;2.77;1.70;;;9.70;99.90;;;;;;4897753;29;20504;-69
2022/09/20 04:06:58;;;;;;;2.87;1.47;;;9.70;99.90;;;;;;4898007;29;20450;-68
2022/09/20 04:10:03;;;;;;;1.93;1.37;;;9.70;99.90;;;;;;4896829;29;20502;-69
2022/09/20 04:12:42;;;;;;;3.47;1.60;;;9.80;99.90;;;;;;4898523;29;20474;-69
2022/09/20 04:15:23;;;;;;;1.60;1.30;;;9.70;99.90;;;;;;4897768;29;20458;-69
2022/09/20 04:17:58;;;;;;;1.87;1.20;;;9.70;99.90;;;;;;4897872;29;20465;-69
2022/09/20 04:20:36;;;;;;;2.20;1.70;;;9.80;99.90;;;;;;4900787;29;20548;-69
2022/09/20 04:23:13;;;;;;;1.90;1.40;;;9.80;99.90;;;;;;4935625;29;20471;-68
2022/09/20 04:25:46;;;;;;;2.10;1.83;;;9.80;99.90;;;;;;4933447;29;20904;-69
2022/09/20 04:28:19;;;;;;;2.70;1.77;;;9.80;99.90;;;;;;4954332;28;20464;-68
2022/09/20 04:30:47;;;;;;;2.77;1.70;;;9.80;99.90;;;;;;4973884;28;20878;-69
2022/09/20 04:33:19;;;;;;;4.53;1.57;;;9.80;99.90;;;;;;4973433;28;20466;-69
2022/09/20 04:38:48;;;;;;;2.33;1.80;;;9.80;99.90;;;;;;5058470;28;20426;-68
2022/09/20 04:41:41;;;;;;;2.10;1.77;;;9.80;99.90;;;;;;5058591;28;20481;-68
2022/09/20 04:44:30;;;;;;;3.10;1.83;;;9.80;99.90;;;;;;5057757;28;20477;-68
2022/09/20 04:47:44;;;;;;;2.07;1.47;;;9.80;99.90;;;;;;5058320;28;20449;-68
2022/09/20 04:50:41;;;;;;;3.20;1.80;;;9.80;99.90;;;;;;4977610;28;20477;-68
2022/09/20 04:53:26;;;;;;;3.73;2.27;;;9.80;99.90;;;;;;4977561;28;20469;-69
2022/09/20 04:55:59;;;;;;;3.70;2.00;;;9.70;99.90;;;;;;4978130;28;20783;-70
2022/09/20 04:58:56;;;;;;;2.30;1.77;;;9.80;99.90;;;;;;4978087;28;20478;-71
2022/09/20 05:02:02;;;;;;;3.63;1.87;;;9.80;99.90;;;;;;4978838;28;20465;-71
2022/09/20 05:05:14;;;;;;;3.13;1.80;;;9.80;99.90;;;;;;4992640;28;20532;-69
2022/09/20 05:08:17;;;;;;;3.00;1.67;;;9.80;99.90;;;;;;4997341;28;20554;-70
2022/09/20 05:11:32;;;;;;;3.20;2.17;;;9.80;99.90;;;;;;4997538;28;20449;-71
2022/09/20 05:14:23;;;;;;;2.40;1.70;;;9.80;99.90;;;;;;4920790;29;20449;-71
2022/09/20 05:17:06;;;;;;;3.70;2.40;;;9.80;99.90;;;;;;4902789;29;20454;-69
2022/09/20 05:19:42;;;;;;;4.03;2.10;;;9.80;99.90;;;;;;4902895;29;20450;-70
2022/09/20 05:22:28;;;;;;;3.33;2.23;;;9.90;99.90;;;;;;4901968;29;20474;-70
2022/09/20 05:25:26;;;;;;;3.00;1.80;;;9.90;99.90;;;;;;4901242;29;20466;-70
2022/09/20 05:27:56;;;;;;;3.17;1.97;;;9.90;99.90;;;;;;4945902;28;20555;-70
2022/09/20 05:30:34;;;;;;;2.20;2.00;;;9.90;99.90;;;;;;4961227;29;20927;-71
2022/09/20 05:33:12;;;;;;;1.60;1.43;;;9.90;99.90;;;;;;4959732;29;20447;-70
2022/09/20 05:35:48;;;;;;;2.70;1.67;;;9.90;99.90;;;;;;4958869;29;20460;-70
2022/09/20 05:38:28;;;;;;;4.03;2.00;;;9.90;99.90;;;;;;4959654;29;20798;-70
2022/09/20 05:41:09;;;;;;;2.30;2.10;;;10.00;99.90;;;;;;4959642;29;20456;-71
2022/09/20 05:43:42;;;;;;;3.63;1.93;;;10.00;99.90;;;;;;4959479;29;20857;-71
2022/09/20 05:46:18;;;;;;;3.60;1.87;;;10.10;99.90;;;;;;4958863;29;20893;-70
2022/09/20 05:48:56;;;;;;;3.73;2.00;;;10.10;99.90;;;;;;5011032;28;20461;-70
2022/09/20 05:51:36;;;;;;;5.97;1.63;;;10.10;99.90;;;;;;5019227;28;20833;-71
2022/09/20 05:54:44;;;;;;;2.10;1.70;;;10.20;99.90;;;;;;5039294;28;20537;-68
2022/09/20 05:57:21;;;;;;;2.83;1.70;;;10.30;99.90;;;;;;5060093;28;20889;-69
2022/09/20 05:59:59;;;;;;;3.00;2.10;;;10.30;99.90;;;;;;5058398;28;20439;-70
2022/09/20 06:02:35;;;;;;;1.90;1.57;;;10.40;99.90;;;;;;5059957;28;20500;-70
2022/09/20 06:05:11;;;;;;;2.53;1.20;;;10.50;99.90;;;;;;5057762;28;20509;-69
2022/09/20 06:07:56;;;;;;;4.73;1.70;;;10.50;99.90;;;;;;5070046;28;20454;-69
2022/09/20 06:10:47;;;;;;;1.80;1.60;;;10.50;99.90;;;;;;5077510;28;20442;-69
2022/09/20 06:13:44;;;;;;;2.87;2.00;;;10.50;99.90;;;;;;5073575;28;20493;-69
2022/09/20 06:16:18;;;;;;;2.47;1.60;;;10.50;99.90;;;;;;4995252;28;20891;-69
2022/09/20 06:18:55;;;;;;;2.10;1.73;;;10.50;99.90;;;;;;4995655;28;20549;-70
2022/09/20 06:21:33;;;;;;;7.43;1.87;;;10.50;99.90;;;;;;4995533;28;20777;-69
2022/09/20 06:24:02;;;;;;;4.70;1.60;;;10.50;99.90;;;;;;4995169;28;20505;-70
2022/09/20 06:26:35;;;;;;;6.33;2.03;;;10.50;99.90;;;;;;4995037;28;20458;-69
2022/09/20 06:29:06;;;;;;;3.63;2.07;;;10.50;99.90;;;;;;4992161;28;20454;-70
2022/09/20 06:31:33;;;;;;;2.37;1.77;;;10.50;99.90;;;;;;4975278;28;20451;-69
2022/09/20 06:34:05;;;;;;;3.00;1.80;;;10.60;99.90;;;;;;4975762;28;20455;-70
2022/09/20 06:42:17;;;;;;;3.40;2.00;;;10.70;99.90;;;;;;4975595;28;20450;-69
2022/09/20 06:44:44;;;;;;;2.63;2.00;;;10.70;99.90;;;;;;4974815;28;20557;-69
2022/09/20 06:47:12;;;;;;;5.83;1.60;;;10.70;99.90;;;;;;4974970;28;20450;-69
2022/09/20 06:49:40;;;;;;;3.00;2.17;;;10.70;99.90;;;;;;4975092;28;20578;-69
2022/09/20 06:52:13;;;;;;;2.00;1.63;;;10.70;99.90;;;;;;4981631;28;20562;-68
2022/09/20 06:54:44;;;;;;;2.00;1.60;;;10.70;99.90;;;;;;5055746;28;20524;-69
2022/09/20 06:57:15;;;;;;;2.67;1.80;;;10.70;99.90;;;;;;5056435;28;20490;-69
2022/09/20 06:59:41;;;;;;;1.80;1.63;;;10.70;99.90;;;;;;5054628;28;20768;-69
2022/09/20 07:02:09;;;;;;;3.10;1.70;;;10.70;99.90;;;;;;5055492;28;20461;-69
2022/09/20 07:04:36;;;;;;;2.40;2.10;;;10.60;99.90;;;;;;5071806;28;20577;-70
2022/09/20 07:07:05;;;;;;;3.53;2.10;;;10.60;99.90;;;;;;5075818;28;20919;-69
2022/09/20 07:09:33;;;;;;;2.43;2.10;;;10.50;99.90;;;;;;5075178;28;20461;-69
2022/09/20 07:12:00;;;;;;;3.03;2.00;;;10.50;99.90;;;;;;5075397;28;20553;-69
2022/09/20 07:14:27;;;;;;;4.17;2.27;;;10.40;99.90;;;;;;5078609;28;21014;-70
2022/09/20 07:16:55;;;;;;;3.97;2.20;;;10.40;99.90;;;;;;5075035;28;20463;-70
2022/09/20 07:19:22;;;;;;;4.40;2.73;;;10.40;99.90;;;;;;5076522;28;20553;-71
2022/09/20 07:21:49;;;;;;;4.23;2.70;;;10.40;99.90;;;;;;5076349;28;20484;-70
2022/09/20 07:24:16;;;;;;;2.53;2.33;;;10.40;99.90;;;;;;5076165;28;20545;-70
2022/09/20 07:26:57;;;;;;;2.93;2.43;;;10.40;99.90;;;;;;5076193;28;20454;-70
2022/09/20 07:29:24;;;;;;;3.50;2.37;;;10.40;99.90;;;;;;5075420;28;20540;-71
2022/09/20 07:31:51;;;;;;;3.43;2.70;;;10.40;99.90;;;;;;5076102;28;20462;-71
2022/09/20 07:34:19;;;;;;;7.93;2.97;;;10.50;99.90;;;;;;5078437;28;20454;-72
2022/09/20 07:36:46;;;;;;;4.70;2.90;;;10.60;99.90;;;;;;5077063;28;20466;-71
2022/09/20 07:39:13;;;;;;;3.60;2.53;;;10.60;99.90;;;;;;5076194;28;20511;-72
2022/09/20 07:41:40;;;;;;;3.03;2.70;;;10.60;99.90;;;;;;5076315;28;20458;-72
2022/09/20 07:46:49;;;;;;;5.60;2.90;;;10.70;99.90;;;;;;5072802;28;20461;-71
2022/09/20 07:49:16;;;;;;;4.40;2.73;;;10.80;99.90;;;;;;5075319;28;20457;-71
2022/09/20 07:51:43;;;;;;;2.33;2.13;;;10.90;99.90;;;;;;5076399;28;20553;-71
2022/09/20 07:54:10;;;;;;;4.00;2.33;;;11.00;99.90;;;;;;5076354;28;20549;-71
2022/09/20 07:56:37;;;;;;;3.30;2.20;;;11.10;99.90;;;;;;5076273;28;20549;-71
2022/09/20 07:59:04;;;;;;;3.10;2.80;;;11.10;99.90;;;;;;5075706;28;20508;-70
2022/09/20 08:01:32;;;;;;;6.50;2.33;;;11.20;99.90;;;;;;5077025;28;20907;-69
2022/09/20 08:03:59;;;;;;;2.23;2.00;;;11.20;99.90;;;;;;5077781;28;20488;-70
2022/09/20 08:06:26;;;;;;;5.70;2.23;;;11.30;99.90;;;;;;5076051;28;20864;-70
2022/09/20 08:08:53;;;;;;;4.03;2.40;;;11.30;99.90;;;;;;5076379;28;20546;-70
2022/09/20 08:11:24;;;;;;;3.73;2.17;;;11.30;99.90;;;;;;5078342;28;20829;-71
2022/09/20 08:13:53;;;;;;;3.57;2.30;;;11.50;99.90;;;;;;5082328;28;20533;-70
2022/09/20 08:16:23;;;;;;;4.07;2.80;;;11.60;99.90;;;;;;5082804;28;20500;-72
2022/09/20 08:18:54;;;;;;;3.40;1.73;;;11.70;99.90;;;;;;5079116;28;20791;-71
2022/09/20 08:21:21;;;;;;;3.37;2.03;;;11.80;99.90;;;;;;5077718;28;20446;-71
2022/09/20 08:23:48;;;;;;;2.17;1.97;;;11.90;99.90;;;;;;5080933;28;20474;-70
2022/09/20 08:26:17;;;;;;;1.73;1.63;;;12.00;99.90;;;;;;5077435;28;20474;-71
2022/09/20 08:28:45;;;;;;;2.77;1.63;;;12.20;99.90;;;;;;5079742;28;20550;-70
2022/09/20 08:31:14;;;;;;;3.13;1.90;;;12.20;99.90;;;;;;5078401;28;20521;-71
2022/09/20 08:33:42;;;;;;;5.20;1.80;;;12.40;99.90;;;;;;5078092;28;20450;-71
2022/09/20 08:36:12;;;;;;;2.13;1.93;;;12.40;99.90;;;;;;5078261;28;20540;-71
2022/09/20 08:38:39;;;;;;;3.23;1.53;;;12.50;99.90;;;;;;5079053;28;20450;-71
2022/09/20 08:41:11;;;;;;;2.40;1.70;;;12.60;99.90;;;;;;5079482;28;20476;-70
2022/09/20 08:43:40;;;;;;;2.80;1.50;;;12.70;99.90;;;;;;5078909;28;20481;-71
2022/09/20 08:46:13;;;;;;;2.60;1.40;;;12.70;99.90;;;;;;5079414;28;20565;-71
2022/09/20 08:48:40;;;;;;;2.73;1.37;;;12.80;99.90;;;;;;5078507;28;20513;-71
2022/09/20 08:51:14;;;;;;;2.87;1.80;;;12.90;99.90;;;;;;5075932;28;20454;-71
2022/09/20 08:53:46;;;;;;;3.40;1.53;;;12.90;99.90;;;;;;5076043;28;20439;-72
2022/09/20 08:56:13;;;;;;;3.10;1.40;;;13.00;99.90;;;;;;5077874;28;20534;-72
2022/09/20 08:58:40;;;;;;;3.40;1.30;;;13.00;99.90;;;;;;5077980;28;20558;-70
2022/09/20 09:01:08;;;;;;;2.63;1.67;;;13.10;99.90;;;;;;5074522;28;20519;-69
2022/09/20 09:03:35;;;;;;;3.20;1.53;;;13.10;99.90;;;;;;5073582;28;20482;-70
2022/09/20 09:06:02;;;;;;;3.00;1.53;;;13.20;99.90;;;;;;5073721;28;20524;-70
2022/09/20 09:08:34;;;;;;;3.97;1.63;;;13.20;99.90;;;;;;5073896;28;20523;-69
2022/09/20 09:11:07;;;;;;;4.23;1.60;;;13.30;99.90;;;;;;5074096;28;20442;-70
2022/09/20 09:13:39;;;;;;;1.73;1.13;;;13.40;99.90;;;;;;5073289;28;20439;-70
2022/09/20 09:16:10;;;;;;;1.87;1.30;;;13.40;99.90;;;;;;5074084;28;20453;-69
2022/09/20 09:18:40;;;;;;;2.40;1.23;;;13.50;99.90;;;;;;5075128;28;20493;-71
2022/09/20 09:21:11;;;;;;;4.90;1.20;;;13.60;99.90;;;;;;5077011;28;20777;-71
2022/09/20 09:23:43;;;;;;;3.63;1.40;;;13.70;99.90;;;;;;5077714;28;20988;-70
2022/09/20 09:26:16;;;;;;;2.00;1.30;;;13.80;99.90;;;;;;5082125;28;20498;-70
2022/09/20 09:28:43;;;;;;;2.23;1.10;;;13.90;99.90;;;;;;5077675;28;20452;-71
2022/09/20 09:31:22;;;;;;;5.23;1.20;;;14.00;99.90;;;;;;5077240;28;20458;-70
2022/09/20 09:33:49;;;;;;;1.70;0.93;;;14.20;99.90;;;;;;5077003;28;20452;-71
2022/09/20 09:36:21;;;;;;;6.90;1.80;;;14.40;99.90;;;;;;5076689;28;20457;-71
2022/09/20 09:38:49;;;;;;;2.13;1.03;;;14.40;99.90;;;;;;5077186;28;20493;-71
2022/09/20 09:41:25;;;;;;;3.00;1.17;;;14.50;99.90;;;;;;5077515;28;20472;-71
2022/09/20 09:43:59;;;;;;;2.10;1.20;;;14.50;99.90;;;;;;5077432;28;20519;-70
2022/09/20 09:46:30;;;;;;;2.10;1.47;;;14.50;99.90;;;;;;5077113;28;20587;-71
2022/09/20 09:49:09;;;;;;;2.40;1.20;;;14.50;99.90;;;;;;5076964;28;20529;-71
2022/09/20 09:51:37;;;;;;;4.30;1.27;;;14.60;99.90;;;;;;5076981;28;20468;-72
2022/09/20 09:54:07;;;;;;;4.00;1.30;;;14.60;99.90;;;;;;5076721;28;20454;-71
2022/09/20 09:56:48;;;;;;;2.07;1.50;;;14.70;99.90;;;;;;5076682;28;20515;-71
2022/09/20 09:59:42;;;;;;;3.03;1.47;;;14.70;99.90;;;;;;5076783;28;20540;-71
2022/09/20 10:02:27;;;;;;;2.80;1.57;;;14.80;99.90;;;;;;5073521;28;20466;-71
2022/09/20 10:05:00;;;;;;;3.70;1.40;;;14.80;99.90;;;;;;5077336;28;20506;-70
2022/09/20 10:07:36;;;;;;;3.13;1.50;;;14.90;99.90;;;;;;5078046;28;20546;-71
2022/09/20 10:10:17;;;;;;;1.50;1.10;;;15.00;99.90;;;;;;5077070;28;20454;-72
2022/09/20 10:12:59;;;;;;;3.77;1.80;;;15.20;99.90;;;;;;5076733;28;20438;-71
2022/09/20 10:15:32;;;;;;;1.60;1.17;;;15.40;99.90;;;;;;5077761;28;20758;-71
2022/09/20 10:18:16;;;;;;;1.57;1.10;;;15.40;99.90;;;;;;5076910;28;20443;-72
2022/09/20 10:21:15;;;;;;;3.80;1.60;;;15.40;99.90;;;;;;5077796;28;20450;-73
2022/09/20 10:23:57;;;;;;;2.53;1.40;;;15.40;99.90;;;;;;5081228;28;20999;-71
2022/09/20 10:26:45;;;;;;;3.23;1.80;;;15.40;99.90;;;;;;5077341;28;20777;-71
2022/09/20 10:29:22;;;;;;;3.37;1.73;;;15.40;99.90;;;;;;5079547;28;20452;-71
2022/09/20 10:31:58;;;;;;;2.40;1.83;;;15.40;99.90;;;;;;5076830;28;20453;-70
2022/09/20 10:34:53;;;;;;;2.83;2.10;;;15.40;99.90;;;;;;5076811;28;20771;-70
2022/09/20 10:37:31;;;;;;;8.43;2.87;;;15.30;99.90;;;;;;4997547;28;20533;-71
2022/09/20 10:40:06;;;;;;;7.63;2.60;;;15.20;99.90;;;;;;4997983;28;20957;-70
2022/09/20 10:45:31;;;;;;;5.13;2.93;;;14.80;99.90;;;;;;4995576;28;20564;-69
2022/09/20 10:48:06;;;;;;;8.83;3.40;;;14.50;99.90;;;;;;4994937;28;20457;-69
2022/09/20 10:50:42;;;;;;;2.80;2.40;;;14.30;99.90;;;;;;4994567;28;20449;-69
2022/09/20 10:53:28;;;;;;;4.23;2.63;;;14.10;99.90;;;;;;4994532;28;20442;-69
2022/09/20 10:56:08;;;;;;;4.03;2.77;;;14.00;99.90;;;;;;4994879;28;20454;-68
2022/09/20 10:59:06;;;;;;;3.50;2.33;;;14.00;99.90;;;;;;4994436;28;20466;-69
2022/09/20 11:01:40;;;;;;;4.63;3.40;;;14.00;99.90;;;;;;4936252;29;20465;-69
2022/09/20 11:04:28;;;;;;;3.03;2.77;;;14.10;99.90;;;;;;4935955;29;20484;-68
2022/09/20 11:07:02;;;;;;;6.67;2.70;;;14.30;99.90;;;;;;4936133;29;20810;-68
2022/09/20 11:09:34;;;;;;;2.90;1.10;;;14.30;99.90;;;;;;4936436;29;20445;-69
2022/09/20 11:12:09;;;;;;;2.03;1.17;;;14.00;99.90;;;;;;4937139;29;20591;-69
2022/09/20 11:14:42;;;;;;;2.23;1.00;;;13.50;99.90;;;;;;4976557;28;20540;-70
2022/09/20 11:17:15;;;;;;;1.60;0.97;;;13.20;99.90;;;;;;4994384;28;20537;-69
2022/09/20 11:19:50;;;;;;;2.43;0.90;;;12.80;99.90;;;;;;4994985;28;20458;-69
2022/09/20 11:22:22;;;;;;;2.93;1.13;;;12.50;99.90;;;;;;4994234;28;20911;-69
2022/09/20 11:24:52;;;;;;;1.67;1.00;;;12.30;99.90;;;;;;4994375;28;20545;-69
2022/09/20 11:27:23;;;;;;;1.80;1.00;;;12.20;99.90;;;;;;4994472;28;20470;-70
2022/09/20 11:29:55;;;;;;;2.90;1.20;;;12.00;99.90;;;;;;4994609;28;20452;-69
2022/09/20 11:32:26;;;;;;;3.83;1.00;;;11.90;99.90;;;;;;4994014;28;20456;-68
2022/09/20 11:34:56;;;;;;;1.27;1.00;;;11.80;99.90;;;;;;4997205;28;20469;-70
2022/09/20 11:37:30;;;;;;;1.63;1.13;;;11.80;99.90;;;;;;4994262;28;20541;-69
2022/09/20 11:40:01;;;;;;;1.30;0.90;;;11.70;99.90;;;;;;5052749;28;20978;-69
2022/09/20 11:42:31;;;;;;;2.40;1.47;;;11.70;99.90;;;;;;5054626;28;20526;-69
2022/09/20 11:44:59;;;;;;;1.70;1.20;;;11.70;99.90;;;;;;5054770;28;20538;-69
2022/09/20 11:47:30;;;;;;;2.33;1.20;;;11.70;99.90;;;;;;5054019;28;20965;-68
2022/09/20 11:50:55;;;;;;;1.80;1.30;;;11.80;99.90;;;;;;5055084;28;20450;-68
2022/09/20 11:53:36;;;;;;;2.00;1.47;;;12.00;99.90;;;;;;4993519;28;20454;-69
2022/09/20 11:56:12;;;;;;;2.00;1.27;;;12.20;99.90;;;;;;4993553;28;20449;-69
2022/09/20 11:58:47;;;;;;;2.40;1.50;;;13.00;99.90;;;;;;4993800;28;20512;-69
2022/09/20 12:01:24;;;;;;;2.40;1.60;;;13.50;99.90;;;;;;4981980;28;20520;-69
2022/09/20 12:03:54;;;;;;;3.53;1.67;;;14.00;99.90;;;;;;5001000;28;20473;-69
2022/09/20 12:06:27;;;;;;;3.20;1.90;;;14.60;99.90;;;;;;5012676;28;20489;-69
2022/09/20 12:08:58;;;;;;;3.47;2.13;;;15.20;99.90;;;;;;5012606;28;20464;-69
2022/09/20 12:11:31;;;;;;;2.90;2.23;;;15.60;99.90;;;;;;5013060;28;20456;-69
2022/09/20 12:14:04;;;;;;;3.03;2.20;;;16.10;99.90;;;;;;5013090;28;20504;-69
2022/09/20 12:16:41;;;;;;;2.70;2.30;;;16.60;99.90;;;;;;5013033;28;20453;-69
2022/09/20 12:19:12;;;;;;;2.90;2.57;;;17.40;99.90;;;;;;5012901;28;20449;-70
2022/09/20 12:22:25;;;;;;;2.40;2.10;;;18.00;99.90;;;;;;5013901;28;20936;-69
2022/09/20 12:25:25;;;;;;;4.83;2.50;;;18.90;99.90;;;;;;5013801;28;20468;-71
2022/09/20 12:27:58;;;;;;;3.63;2.20;;;19.60;99.90;;;;;;5012954;28;20534;-69
2022/09/20 12:30:25;;;;;;;4.60;2.30;;;20.20;99.90;;;;;;5074081;28;20933;-69
2022/09/20 12:33:01;;;;;;;2.30;1.83;;;20.80;99.90;;;;;;5074391;28;20464;-69
2022/09/20 12:36:15;;;;;;;2.23;1.70;;;20.80;99.90;;;;;;5074586;28;20523;-69
2022/09/20 12:39:04;;;;;;;2.00;1.40;;;19.90;99.90;;;;;;5075142;28;20883;-69
2022/09/20 12:41:47;;;;;;;3.63;1.83;;;19.40;99.90;;;;;;5074224;28;20492;-68
2022/09/20 12:44:26;;;;;;;2.67;1.67;;;19.50;99.90;;;;;;5073784;28;20464;-69
2022/09/20 12:46:57;;;;;;;1.50;1.20;;;19.60;99.90;;;;;;5073701;28;20469;-69
2022/09/20 12:52:59;;;;;;;3.93;1.70;;;18.30;99.90;;;;;;5074622;28;20568;-69
2022/09/20 12:55:33;;;;;;;2.70;1.80;;;18.10;99.90;;;;;;5074154;28;20452;-69
2022/09/20 12:58:03;;;;;;;2.80;1.43;;;18.00;99.90;;;;;;5074341;28;20788;-69
2022/09/20 13:00:37;;;;;;;2.00;1.10;;;17.40;99.90;;;;;;5077611;28;20789;-69
2022/09/20 13:03:26;;;;;;;1.30;0.90;;;16.60;99.90;;;;;;5077205;28;20909;-68
2022/09/20 13:06:22;;;;;;;1.53;0.77;;;16.60;99.90;;;;;;5077471;28;20820;-69
2022/09/20 13:08:55;;;;;;;1.57;0.70;;;17.10;99.90;;;;;;5074755;28;20458;-70
2022/09/20 13:11:26;;;;;;;1.30;0.80;;;17.40;99.90;;;;;;5077343;28;20946;-68
2022/09/20 13:13:57;;;;;;;1.17;0.80;;;17.00;99.90;;;;;;5077607;28;20863;-69
2022/09/20 13:16:29;;;;;;;1.60;0.70;;;16.70;99.90;;;;;;5077254;28;20434;-68
2022/09/20 13:19:03;;;;;;;1.73;0.70;;;17.20;99.90;;;;;;5077749;28;20439;-69
2022/09/20 13:21:31;;;;;;;1.63;1.00;;;17.50;99.90;;;;;;5077273;28;20837;-68
2022/09/20 13:24:02;;;;;;;2.90;0.80;;;18.10;99.90;;;;;;5077128;28;20455;-68
2022/09/20 13:26:35;;;;;;;1.73;0.70;;;19.10;99.90;;;;;;5077223;28;20772;-68
2022/09/20 13:29:04;;;;;;;2.07;1.00;;;19.70;99.90;;;;;;5076920;28;20537;-69
2022/09/20 13:31:34;;;;;;;1.80;0.80;;;19.30;99.90;;;;;;5077068;28;20458;-69
2022/09/20 13:34:21;;;;;;;1.50;0.87;;;18.20;99.90;;;;;;5076980;28;20438;-69
2022/09/20 13:36:51;;;;;;;1.60;1.10;;;17.20;99.90;;;;;;5076913;28;20840;-69
2022/09/20 13:55:50;;;;;;;1.47;0.90;;;15.70;99.90;;;;;;5076820;28;20512;-72
2022/09/20 13:58:21;;;;;;;1.27;0.80;;;16.00;99.90;;;;;;5076447;28;20537;-72
2022/09/20 14:00:50;;;;;;;1.30;0.80;;;17.00;99.90;;;;;;5076883;28;20758;-71
2022/09/20 14:03:20;;;;;;;1.20;0.80;;;17.90;99.90;;;;;;5076726;28;20569;-72
2022/09/20 14:05:50;;;;;;;1.40;0.70;;;18.40;99.90;;;;;;5076113;28;20558;-72
2022/09/20 14:08:23;;;;;;;1.10;0.70;;;19.50;99.90;;;;;;5096614;28;20473;-72
2022/09/20 14:14:14;;;;;;;1.40;0.60;;;20.40;99.90;;;;;;5096495;28;20429;-73
2022/09/20 14:16:45;;;;;;;1.67;0.60;;;20.40;99.90;;;;;;5077624;28;20450;-72
2022/09/20 14:19:15;;;;;;;1.00;0.70;;;20.30;99.90;;;;;;5075647;28;20458;-70